Terminal Aerodrome Forecast
Issued by NWS Wilmington, OH

Current Version | Previous Version | Graphics & Text | Print | Product List | Glossary On
Versions: 1 2 3 4 5 6 7 8 9 10 11 12 13 14 15 16 17 18 19
238
FTUS41 KILN 200525
TAFCMH
TAF
KCMH 200525Z 2006/2106 VRB03KT P6SM FEW050
     FM200700 VRB02KT 5SM BR FEW250
     FM201000 00000KT 2SM BR FEW250
     FM201400 19005KT P6SM FEW050=

USA.gov is the U.S. government's official web portal to all federal, state and local government web resources and services.